Time;durP1;ratioP1;P1;durP2;ratioP2;P2;SDS_P1;SDS_P2;PMS_P1;PMS_P2;Temp;Humidity;BMP_temperature;BMP_pressure;BME280_temperature;BME280_humidity;BME280_pressure;Samples;Min_cycle;Max_cycle;Signal;HPM_P1;HPM_P2
2024/01/14 00:01:55;;;;;;;59.75;35.38;;;-0.10;99.90;;;;;;5021123;28;20333;-73
2024/01/14 00:04:41;;;;;;;59.55;35.58;;;-0.10;99.90;;;;;;5013115;28;20206;-73
2024/01/14 00:07:26;;;;;;;61.30;38.33;;;0.00;99.90;;;;;;5011324;28;20279;-72
2024/01/14 00:10:12;;;;;;;53.20;34.53;;;-0.20;99.90;;;;;;5020814;28;20280;-72
2024/01/14 00:12:58;;;;;;;58.38;36.10;;;-0.20;99.90;;;;;;5005988;28;20204;-72
2024/01/14 00:15:44;;;;;;;55.13;35.95;;;-0.20;99.90;;;;;;5019869;28;20679;-72
2024/01/14 00:18:31;;;;;;;57.75;33.42;;;-0.30;99.90;;;;;;5016361;28;20210;-72
2024/01/14 00:21:17;;;;;;;51.22;28.42;;;-0.30;99.90;;;;;;5023732;28;20606;-72
2024/01/14 00:24:03;;;;;;;56.72;31.42;;;-0.30;99.90;;;;;;5011319;28;20202;-70
2024/01/14 00:26:49;;;;;;;55.38;36.10;;;-0.30;99.90;;;;;;5018120;28;20803;-70
2024/01/14 00:29:36;;;;;;;61.20;37.08;;;-0.30;99.90;;;;;;5005562;28;20214;-70
2024/01/14 00:32:22;;;;;;;54.63;36.83;;;-0.30;99.90;;;;;;5006209;28;20238;-70
2024/01/14 00:35:09;;;;;;;59.63;36.72;;;-0.20;99.90;;;;;;5018911;28;20286;-70
2024/01/14 00:37:55;;;;;;;58.80;34.53;;;-0.20;99.90;;;;;;5016245;28;20697;-70
2024/01/14 00:40:41;;;;;;;57.70;35.25;;;-0.20;99.90;;;;;;5019485;28;20288;-71
2024/01/14 00:43:27;;;;;;;57.35;36.25;;;-0.20;99.90;;;;;;5017448;28;20234;-70
2024/01/14 00:46:13;;;;;;;52.90;31.38;;;-0.10;99.90;;;;;;5018027;28;20454;-70
2024/01/14 00:48:59;;;;;;;57.42;35.67;;;-0.10;99.90;;;;;;5013635;28;20218;-70
2024/01/14 00:51:46;;;;;;;62.58;38.30;;;-0.20;99.90;;;;;;5017515;28;20370;-70
2024/01/14 00:54:32;;;;;;;62.17;37.65;;;-0.40;99.90;;;;;;5015247;28;20260;-72
2024/01/14 00:57:17;;;;;;;58.35;37.45;;;-0.40;99.90;;;;;;5015150;28;20284;-73
2024/01/14 01:00:04;;;;;;;52.42;32.50;;;-0.40;99.90;;;;;;5016324;28;20594;-73
2024/01/14 01:02:50;;;;;;;57.30;34.00;;;-0.20;99.90;;;;;;5010469;28;20341;-73
2024/01/14 01:05:35;;;;;;;53.70;30.42;;;-0.20;99.90;;;;;;5019565;28;20209;-73
2024/01/14 01:08:23;;;;;;;60.80;36.38;;;-0.20;99.90;;;;;;5014799;28;20205;-73
2024/01/14 01:11:08;;;;;;;59.13;35.40;;;-0.10;99.90;;;;;;5022967;28;20227;-73
2024/01/14 01:13:54;;;;;;;61.40;39.72;;;-0.10;99.90;;;;;;5014653;28;20263;-72
2024/01/14 01:16:39;;;;;;;56.38;33.45;;;-0.30;99.90;;;;;;5018381;28;20574;-73
2024/01/14 01:19:25;;;;;;;59.65;35.80;;;-0.30;99.90;;;;;;5013967;28;20680;-73
2024/01/14 01:22:11;;;;;;;57.85;35.40;;;-0.30;99.90;;;;;;5017321;28;20297;-73
2024/01/14 01:24:58;;;;;;;58.28;36.33;;;-0.40;99.90;;;;;;5027207;28;20291;-72
2024/01/14 01:27:43;;;;;;;57.75;33.92;;;-0.30;99.90;;;;;;5017896;28;20280;-72
2024/01/14 01:30:29;;;;;;;57.50;35.08;;;-0.40;99.90;;;;;;5017559;28;20252;-73
2024/01/14 01:33:15;;;;;;;58.88;36.88;;;-0.30;99.90;;;;;;5023992;28;20206;-73
2024/01/14 01:36:01;;;;;;;67.45;37.88;;;-0.40;99.90;;;;;;5021636;28;20205;-73
2024/01/14 01:38:46;;;;;;;62.10;36.83;;;-0.40;99.90;;;;;;5021237;28;20260;-73
2024/01/14 01:41:33;;;;;;;63.60;37.50;;;-0.30;99.90;;;;;;5016536;28;20606;-73
2024/01/14 01:44:19;;;;;;;63.80;38.03;;;-0.30;99.90;;;;;;5008813;28;20615;-72
2024/01/14 01:47:06;;;;;;;67.10;38.45;;;-0.30;99.90;;;;;;5021758;28;20206;-73
2024/01/14 01:49:51;;;;;;;71.07;37.55;;;-0.40;99.90;;;;;;5023886;28;20272;-73
2024/01/14 01:52:38;;;;;;;61.28;36.65;;;-0.60;99.90;;;;;;5017428;28;20681;-73
2024/01/14 01:55:24;;;;;;;69.07;39.72;;;-0.50;99.90;;;;;;5024959;28;20210;-72
2024/01/14 01:58:11;;;;;;;65.22;38.60;;;-0.40;99.90;;;;;;5025794;28;20209;-73
2024/01/14 02:00:57;;;;;;;65.38;38.88;;;-0.40;99.90;;;;;;5025590;28;20289;-72
2024/01/14 02:03:43;;;;;;;66.72;38.92;;;-0.40;99.90;;;;;;5009864;28;20230;-73
2024/01/14 02:06:28;;;;;;;67.93;37.88;;;-0.50;99.90;;;;;;5021568;28;20201;-72
2024/01/14 02:09:15;;;;;;;70.70;38.47;;;-0.40;99.90;;;;;;5030004;28;20292;-73
2024/01/14 02:12:01;;;;;;;62.28;35.83;;;-0.40;99.90;;;;;;5019862;28;20221;-72
2024/01/14 02:14:48;;;;;;;71.38;37.55;;;-0.50;99.90;;;;;;5026376;28;20214;-73
2024/01/14 02:17:33;;;;;;;64.20;33.80;;;-0.60;99.90;;;;;;5018580;28;20272;-73
2024/01/14 02:20:19;;;;;;;61.55;37.22;;;-0.60;99.90;;;;;;5013869;28;20261;-73
2024/01/14 02:23:09;;;;;;;64.13;37.05;;;-0.40;99.90;;;;;;5009088;28;20198;-73
2024/01/14 02:25:56;;;;;;;68.53;37.70;;;-0.50;99.90;;;;;;5019758;28;20271;-73
2024/01/14 02:28:42;;;;;;;69.75;37.45;;;-0.60;99.90;;;;;;5024233;28;20213;-72
2024/01/14 02:31:28;;;;;;;70.55;35.08;;;-0.60;99.90;;;;;;5021774;28;20229;-72
2024/01/14 02:34:14;;;;;;;65.57;35.88;;;-0.50;99.90;;;;;;5019116;28;20222;-73
2024/01/14 02:37:00;;;;;;;68.15;35.95;;;-0.40;99.90;;;;;;5010146;28;20198;-73
2024/01/14 02:39:46;;;;;;;70.18;36.05;;;-0.50;99.90;;;;;;5025653;28;20672;-73
2024/01/14 02:42:33;;;;;;;70.40;39.72;;;-0.40;99.90;;;;;;5018010;28;20229;-73
2024/01/14 02:45:19;;;;;;;71.07;36.92;;;-0.40;99.90;;;;;;5024531;28;20202;-73
2024/01/14 02:48:05;;;;;;;70.47;37.83;;;-0.40;99.90;;;;;;5022033;28;20331;-73
2024/01/14 02:50:50;;;;;;;70.07;37.92;;;-0.60;99.90;;;;;;5020046;28;20225;-73
2024/01/14 02:53:36;;;;;;;64.50;37.70;;;-0.40;99.90;;;;;;5020007;28;20217;-73
2024/01/14 02:56:22;;;;;;;76.82;40.53;;;-0.60;99.90;;;;;;5024091;28;20209;-73
2024/01/14 02:59:09;;;;;;;62.55;35.75;;;-0.60;99.90;;;;;;5020004;28;20249;-73
2024/01/14 03:01:54;;;;;;;69.60;37.58;;;-0.70;99.90;;;;;;5024189;28;20234;-72
2024/01/14 03:04:40;;;;;;;68.43;34.85;;;-0.80;99.90;;;;;;5026606;28;20325;-72
2024/01/14 03:07:25;;;;;;;78.32;36.22;;;-0.70;99.90;;;;;;5014218;28;20692;-73
2024/01/14 03:10:11;;;;;;;75.32;38.83;;;-0.70;99.90;;;;;;5013673;28;20237;-73
2024/01/14 03:12:57;;;;;;;73.60;39.53;;;-0.60;99.90;;;;;;5027243;28;20229;-72
2024/01/14 03:15:44;;;;;;;67.25;38.00;;;-0.70;99.90;;;;;;5029705;28;20831;-73
2024/01/14 03:18:30;;;;;;;70.10;37.55;;;-0.60;99.90;;;;;;5018878;28;20210;-73
2024/01/14 03:21:18;;;;;;;66.45;37.95;;;-0.50;99.90;;;;;;5013557;28;20236;-73
2024/01/14 03:24:04;;;;;;;70.57;38.10;;;-0.40;99.90;;;;;;5024324;28;20798;-73
2024/01/14 03:26:49;;;;;;;71.38;37.47;;;-0.40;99.90;;;;;;5016616;28;20339;-73
2024/01/14 03:29:35;;;;;;;69.25;37.30;;;-0.50;99.90;;;;;;5022750;28;20225;-73
2024/01/14 03:32:22;;;;;;;68.30;37.17;;;-0.50;99.90;;;;;;5020262;28;20218;-73
2024/01/14 03:35:08;;;;;;;68.10;35.83;;;-0.50;99.90;;;;;;5026117;28;20206;-72
2024/01/14 03:37:53;;;;;;;62.67;35.78;;;-0.50;99.90;;;;;;5017941;28;20228;-73
2024/01/14 03:40:39;;;;;;;58.92;34.40;;;-0.50;99.90;;;;;;5028779;28;20268;-73
2024/01/14 03:43:25;;;;;;;72.60;38.20;;;-0.40;99.90;;;;;;5012232;28;20716;-73
2024/01/14 03:46:10;;;;;;;65.85;36.35;;;-0.50;99.90;;;;;;5023878;28;20205;-73
2024/01/14 03:48:57;;;;;;;65.32;38.65;;;-0.40;99.90;;;;;;5027952;28;20704;-73
2024/01/14 03:51:43;;;;;;;65.03;34.95;;;-0.30;99.90;;;;;;5027236;28;20233;-73
2024/01/14 03:54:28;;;;;;;66.43;36.70;;;-0.30;99.90;;;;;;5022099;28;20288;-73
2024/01/14 03:57:14;;;;;;;63.35;30.90;;;-0.30;99.90;;;;;;5027524;28;20208;-73
2024/01/14 04:00:00;;;;;;;72.38;38.22;;;-0.50;99.90;;;;;;5020317;28;20332;-73
2024/01/14 04:02:46;;;;;;;70.65;36.15;;;-0.40;99.90;;;;;;5014285;28;20309;-73
2024/01/14 04:05:34;;;;;;;61.35;35.72;;;-0.50;99.90;;;;;;5021244;28;20209;-73
2024/01/14 04:08:19;;;;;;;64.80;36.45;;;-0.40;99.90;;;;;;5013020;28;20630;-73
2024/01/14 04:11:05;;;;;;;63.50;32.03;;;-0.30;99.90;;;;;;5019813;28;20233;-73
2024/01/14 04:13:50;;;;;;;67.68;33.30;;;-0.40;99.90;;;;;;5024645;28;20212;-73
2024/01/14 04:16:40;;;;;;;71.43;39.40;;;-0.50;99.90;;;;;;5030243;28;20205;-73
2024/01/14 04:19:26;;;;;;;65.95;36.78;;;-0.50;99.90;;;;;;5014026;28;20281;-73
2024/01/14 04:22:13;;;;;;;65.30;37.53;;;-0.40;99.90;;;;;;5011821;28;20221;-71
2024/01/14 04:24:58;;;;;;;74.18;37.25;;;-0.60;99.90;;;;;;5028893;28;20213;-72
2024/01/14 04:27:44;;;;;;;73.35;38.40;;;-0.60;99.90;;;;;;5022816;28;20321;-72
2024/01/14 04:30:30;;;;;;;72.85;36.92;;;-0.60;99.90;;;;;;5022677;28;20352;-73
2024/01/14 04:33:15;;;;;;;66.35;31.88;;;-0.60;99.90;;;;;;5006731;28;20198;-73
2024/01/14 04:36:01;;;;;;;71.10;37.60;;;-0.50;99.90;;;;;;5026320;28;20213;-72
2024/01/14 04:38:48;;;;;;;61.13;30.00;;;-0.40;99.90;;;;;;5029021;28;20348;-73
2024/01/14 04:41:33;;;;;;;67.00;36.03;;;-0.40;99.90;;;;;;5018833;28;20320;-73
2024/01/14 04:44:19;;;;;;;59.08;31.00;;;-0.40;99.90;;;;;;5024105;28;20217;-73
2024/01/14 04:47:05;;;;;;;60.13;33.78;;;-0.40;99.90;;;;;;5024874;28;20221;-73
2024/01/14 04:49:51;;;;;;;75.68;36.95;;;-0.50;99.90;;;;;;5025437;28;20256;-73
2024/01/14 04:52:36;;;;;;;64.10;33.30;;;-0.60;99.90;;;;;;5026696;28;20217;-73
2024/01/14 04:55:23;;;;;;;71.97;38.45;;;-0.70;99.90;;;;;;5012480;28;20217;-73
2024/01/14 04:58:09;;;;;;;77.85;36.22;;;-0.60;99.90;;;;;;5028232;28;20222;-73
2024/01/14 05:00:55;;;;;;;69.63;37.03;;;-0.50;99.90;;;;;;5015153;28;20618;-73
2024/01/14 05:03:40;;;;;;;68.45;35.80;;;-0.40;99.90;;;;;;5029891;28;20368;-73
2024/01/14 05:06:26;;;;;;;70.55;36.65;;;-0.30;99.90;;;;;;5020728;28;20213;-73
2024/01/14 05:09:11;;;;;;;63.65;30.00;;;-0.30;99.90;;;;;;5011651;28;20193;-73
2024/01/14 05:11:58;;;;;;;68.03;36.90;;;-0.30;99.90;;;;;;5013677;28;20291;-73
2024/01/14 05:14:44;;;;;;;80.32;39.67;;;-0.60;99.90;;;;;;5022497;28;20210;-73
2024/01/14 05:17:29;;;;;;;76.65;37.15;;;-0.70;99.90;;;;;;5020050;28;20576;-73
2024/01/14 05:20:15;;;;;;;73.25;37.55;;;-0.60;99.90;;;;;;5029780;28;20233;-72
2024/01/14 05:23:00;;;;;;;78.18;38.58;;;-0.70;99.90;;;;;;5029600;28;20630;-72
2024/01/14 05:25:46;;;;;;;72.07;33.92;;;-0.80;99.90;;;;;;5030101;28;20202;-72
2024/01/14 05:28:33;;;;;;;70.53;37.70;;;-0.90;99.90;;;;;;4993835;28;20581;-72
2024/01/14 05:31:19;;;;;;;75.95;39.67;;;-0.90;99.90;;;;;;5015091;28;20360;-73
2024/01/14 05:34:04;;;;;;;78.25;37.47;;;-0.70;99.90;;;;;;5009436;28;20579;-73
2024/01/14 05:36:50;;;;;;;76.40;36.80;;;-0.70;99.90;;;;;;5006206;28;20210;-72
2024/01/14 05:39:36;;;;;;;69.85;35.70;;;-0.70;99.90;;;;;;5005303;28;20327;-72
2024/01/14 05:42:21;;;;;;;71.47;34.92;;;-0.70;99.90;;;;;;4994930;28;20294;-72
2024/01/14 05:45:10;;;;;;;72.28;37.72;;;-0.70;99.90;;;;;;5000263;28;20206;-72
2024/01/14 05:47:55;;;;;;;75.63;38.53;;;-0.70;99.90;;;;;;5000080;28;20238;-73
2024/01/14 05:50:41;;;;;;;72.93;38.63;;;-0.70;99.90;;;;;;5009819;28;20238;-72
2024/01/14 05:53:28;;;;;;;69.05;35.85;;;-0.60;99.90;;;;;;4999607;28;20218;-72
2024/01/14 05:56:23;;;;;;;68.35;35.10;;;-0.60;99.90;;;;;;5015231;28;20225;-72
2024/01/14 05:59:09;;;;;;;74.82;39.13;;;-0.60;99.90;;;;;;5002639;28;20213;-73
2024/01/14 06:01:56;;;;;;;74.32;39.05;;;-0.60;99.90;;;;;;5018556;28;20225;-72
2024/01/14 06:04:42;;;;;;;79.47;38.65;;;-0.70;99.90;;;;;;4999704;28;20214;-72
2024/01/14 06:07:27;;;;;;;78.97;39.00;;;-0.80;99.90;;;;;;5012111;28;20205;-72
2024/01/14 06:10:13;;;;;;;77.60;35.17;;;-0.70;99.90;;;;;;5006741;28;20365;-72
2024/01/14 06:12:58;;;;;;;77.90;36.17;;;-0.80;99.90;;;;;;5015972;28;20694;-72
2024/01/14 06:15:44;;;;;;;74.28;36.42;;;-0.90;99.90;;;;;;5000649;28;20270;-72
2024/01/14 06:18:31;;;;;;;76.97;37.40;;;-0.80;99.90;;;;;;4993371;28;20234;-71
2024/01/14 06:21:18;;;;;;;69.45;32.70;;;-0.70;99.90;;;;;;5010843;28;20238;-72
2024/01/14 06:24:04;;;;;;;73.93;34.65;;;-0.90;99.90;;;;;;5003021;28;20473;-72
2024/01/14 06:26:51;;;;;;;83.35;40.03;;;-0.90;99.90;;;;;;5016707;28;20217;-72
2024/01/14 06:29:37;;;;;;;74.68;33.78;;;-0.90;99.90;;;;;;5012104;28;20277;-72
2024/01/14 06:32:23;;;;;;;75.85;35.83;;;-0.90;99.90;;;;;;5002738;28;20202;-72
2024/01/14 06:35:10;;;;;;;73.55;33.95;;;-0.90;99.90;;;;;;5014852;28;20215;-72
2024/01/14 06:37:56;;;;;;;79.90;36.75;;;-0.90;99.90;;;;;;5009745;28;20282;-72
2024/01/14 06:40:42;;;;;;;77.50;36.58;;;-1.00;99.90;;;;;;4996202;28;20238;-72
2024/01/14 06:43:27;;;;;;;71.00;34.10;;;-0.90;99.90;;;;;;5002567;28;20302;-72
2024/01/14 06:46:13;;;;;;;69.93;32.15;;;-0.90;99.90;;;;;;5022315;28;20202;-72
2024/01/14 06:48:59;;;;;;;70.15;35.85;;;-1.00;99.90;;;;;;5007192;28;20210;-72
2024/01/14 06:51:46;;;;;;;78.55;34.85;;;-1.20;99.90;;;;;;5014776;28;20230;-72
2024/01/14 06:54:32;;;;;;;71.05;33.08;;;-1.10;99.90;;;;;;4997510;28;20321;-72
2024/01/14 06:57:17;;;;;;;77.45;32.60;;;-1.10;99.90;;;;;;5010734;28;20281;-72
2024/01/14 07:00:08;;;;;;;68.10;31.40;;;-1.00;99.90;;;;;;5004265;28;20563;-72
2024/01/14 07:02:53;;;;;;;61.60;29.25;;;-1.00;99.90;;;;;;5010638;28;20350;-72
2024/01/14 07:05:39;;;;;;;74.38;32.97;;;-1.10;99.90;;;;;;5015151;28;20209;-72
2024/01/14 07:08:26;;;;;;;71.93;34.33;;;-1.20;99.90;;;;;;5009566;28;20265;-72
2024/01/14 07:11:12;;;;;;;65.25;34.80;;;-1.10;99.90;;;;;;5018232;28;20221;-72
2024/01/14 07:13:59;;;;;;;67.68;35.22;;;-1.20;99.90;;;;;;5009368;28;20218;-72
2024/01/14 07:16:44;;;;;;;75.60;37.08;;;-1.20;99.90;;;;;;5008193;28;20285;-72
2024/01/14 07:19:30;;;;;;;65.80;34.60;;;-1.10;99.90;;;;;;5011690;28;20321;-72
2024/01/14 07:22:16;;;;;;;67.82;33.92;;;-1.10;99.90;;;;;;5008776;28;20589;-72
2024/01/14 07:25:02;;;;;;;67.95;32.33;;;-1.00;99.90;;;;;;5002951;28;20209;-72
2024/01/14 07:27:48;;;;;;;68.07;32.75;;;-1.00;99.90;;;;;;5013829;28;20605;-71
2024/01/14 07:30:34;;;;;;;65.03;31.25;;;-0.80;99.90;;;;;;5001809;28;20322;-72
2024/01/14 07:33:19;;;;;;;66.47;31.58;;;-0.90;99.90;;;;;;5004655;28;20272;-72
2024/01/14 07:36:06;;;;;;;70.25;32.65;;;-1.10;99.90;;;;;;5006383;28;20340;-72
2024/01/14 07:38:52;;;;;;;70.50;30.52;;;-1.00;99.90;;;;;;5003212;28;20351;-72
2024/01/14 07:41:39;;;;;;;58.58;30.83;;;-1.00;99.90;;;;;;5001867;28;20229;-72
2024/01/14 07:44:24;;;;;;;55.38;28.02;;;-1.00;99.90;;;;;;5010654;28;20229;-72
2024/01/14 07:47:10;;;;;;;63.97;31.10;;;-0.90;99.90;;;;;;5004818;28;20218;-72
2024/01/14 07:49:56;;;;;;;63.28;32.15;;;-0.90;99.90;;;;;;5013421;28;20205;-72
2024/01/14 07:52:42;;;;;;;58.72;30.63;;;-0.80;99.90;;;;;;5010821;28;20330;-72
2024/01/14 07:55:27;;;;;;;57.38;28.52;;;-0.80;99.90;;;;;;5003417;28;20574;-72
2024/01/14 07:58:14;;;;;;;58.97;28.13;;;-0.80;99.90;;;;;;5003389;28;20276;-72
2024/01/14 08:01:00;;;;;;;65.90;31.30;;;-0.80;99.90;;;;;;5007200;28;20233;-72
2024/01/14 08:03:46;;;;;;;60.50;32.05;;;-0.70;99.90;;;;;;5004417;28;20585;-72
2024/01/14 08:06:32;;;;;;;60.33;31.88;;;-0.60;99.90;;;;;;5003363;28;20226;-72
2024/01/14 08:09:18;;;;;;;50.45;25.50;;;-0.60;99.90;;;;;;5005572;28;20205;-72
2024/01/14 08:12:03;;;;;;;56.30;30.38;;;-0.70;99.90;;;;;;5012944;28;20226;-72
2024/01/14 08:14:50;;;;;;;56.85;29.75;;;-0.90;99.90;;;;;;5004674;28;20246;-72
2024/01/14 08:17:37;;;;;;;58.63;30.38;;;-1.00;99.90;;;;;;5011667;28;20585;-72
2024/01/14 08:20:24;;;;;;;54.08;28.73;;;-1.00;99.90;;;;;;5016444;28;20252;-72
2024/01/14 08:23:10;;;;;;;49.42;25.60;;;-0.90;99.90;;;;;;5002411;28;20296;-72
2024/01/14 08:25:57;;;;;;;55.03;25.42;;;-1.00;99.90;;;;;;5009402;28;20714;-72
2024/01/14 08:28:43;;;;;;;50.17;25.75;;;-1.00;99.90;;;;;;5009035;28;20221;-72
2024/01/14 08:31:30;;;;;;;51.78;28.60;;;-0.90;99.90;;;;;;5010001;28;20225;-72
2024/01/14 08:34:15;;;;;;;56.15;29.08;;;-0.80;99.90;;;;;;5014762;28;20210;-72
2024/01/14 08:37:01;;;;;;;54.15;27.23;;;-0.90;99.90;;;;;;5001209;28;20218;-72
2024/01/14 08:39:48;;;;;;;54.42;27.30;;;-1.00;99.90;;;;;;5005382;28;20207;-72
2024/01/14 08:42:33;;;;;;;54.55;29.15;;;-1.10;99.90;;;;;;5004683;28;20222;-72
2024/01/14 08:45:19;;;;;;;52.97;25.02;;;-1.00;99.90;;;;;;5002935;28;20228;-72
2024/01/14 08:48:07;;;;;;;55.90;29.05;;;-1.00;99.90;;;;;;5002824;28;20702;-72
2024/01/14 08:50:53;;;;;;;50.72;27.70;;;-1.00;99.90;;;;;;5005545;28;20217;-72
2024/01/14 08:53:39;;;;;;;49.80;25.20;;;-1.00;99.90;;;;;;5003893;28;20202;-72
2024/01/14 08:56:24;;;;;;;52.05;26.73;;;-0.90;99.90;;;;;;5004890;28;20572;-72
2024/01/14 08:59:10;;;;;;;50.10;24.45;;;-0.90;99.90;;;;;;5015588;28;20210;-72
2024/01/14 09:01:56;;;;;;;59.80;27.63;;;-0.90;99.90;;;;;;5020032;28;20619;-72
2024/01/14 09:04:42;;;;;;;46.70;24.23;;;-1.00;99.90;;;;;;5012793;28;20782;-72
2024/01/14 09:07:28;;;;;;;52.15;24.85;;;-1.20;99.90;;;;;;5005362;28;20273;-72
2024/01/14 09:10:14;;;;;;;52.90;27.35;;;-1.20;99.90;;;;;;5000669;28;20229;-72
2024/01/14 09:12:59;;;;;;;59.30;29.17;;;-1.10;99.90;;;;;;5007634;28;20291;-72
2024/01/14 09:15:45;;;;;;;52.25;26.38;;;-1.30;99.90;;;;;;5008077;28;20217;-72
2024/01/14 09:18:31;;;;;;;57.60;28.42;;;-1.20;99.90;;;;;;5011576;28;20206;-72
2024/01/14 09:21:18;;;;;;;59.05;27.77;;;-1.20;99.90;;;;;;5007294;28;20236;-72
2024/01/14 09:24:04;;;;;;;47.05;24.92;;;-1.20;99.90;;;;;;5014830;28;20716;-72
2024/01/14 09:26:50;;;;;;;52.72;25.05;;;-1.10;99.90;;;;;;5005850;28;20690;-73
2024/01/14 09:29:35;;;;;;;50.38;25.80;;;-1.10;99.90;;;;;;5005344;28;20202;-72
2024/01/14 09:32:21;;;;;;;53.75;27.05;;;-0.90;99.90;;;;;;5018165;28;20720;-72
2024/01/14 09:35:08;;;;;;;57.55;28.38;;;-0.80;99.90;;;;;;5028598;28;20704;-72
2024/01/14 09:37:55;;;;;;;51.50;26.65;;;-0.80;99.90;;;;;;5007057;28;21083;-72
2024/01/14 09:40:42;;;;;;;53.97;25.35;;;-0.70;99.90;;;;;;5006481;28;20242;-73
2024/01/14 09:43:32;;;;;;;55.83;30.00;;;-0.70;99.90;;;;;;5013750;28;20336;-72
2024/01/14 09:46:17;;;;;;;53.53;27.65;;;-0.70;99.90;;;;;;5012759;28;20283;-72
2024/01/14 09:49:03;;;;;;;54.00;28.77;;;-0.60;99.90;;;;;;5016835;28;20207;-71
2024/01/14 09:51:50;;;;;;;53.95;28.08;;;-0.60;99.90;;;;;;5013222;28;20221;-71
2024/01/14 09:54:37;;;;;;;57.75;29.05;;;-0.80;99.90;;;;;;5005973;28;20591;-73
2024/01/14 09:57:24;;;;;;;53.28;28.95;;;-0.70;99.90;;;;;;5009491;28;20653;-71
2024/01/14 10:00:11;;;;;;;56.15;29.77;;;-0.60;99.90;;;;;;5021343;28;20230;-71
2024/01/14 10:02:57;;;;;;;56.83;30.02;;;-0.60;99.90;;;;;;5008930;28;20257;-72
2024/01/14 10:05:44;;;;;;;54.15;28.92;;;-0.70;99.90;;;;;;5014134;28;20344;-72
2024/01/14 10:08:29;;;;;;;54.47;28.08;;;-0.70;99.90;;;;;;5010992;28;20205;-73
2024/01/14 10:11:17;;;;;;;52.40;28.20;;;-0.70;99.90;;;;;;5024595;28;20225;-72
2024/01/14 10:14:04;;;;;;;62.17;30.48;;;-0.70;99.90;;;;;;5009305;28;20326;-73
2024/01/14 10:16:49;;;;;;;60.10;27.83;;;-0.80;99.90;;;;;;5006408;28;20214;-73
2024/01/14 10:19:36;;;;;;;61.28;29.27;;;-0.70;99.90;;;;;;5008491;28;20205;-72
2024/01/14 10:22:22;;;;;;;59.53;29.75;;;-0.70;99.90;;;;;;5012735;28;20221;-71
2024/01/14 10:25:07;;;;;;;64.05;29.27;;;-0.70;99.90;;;;;;5012098;28;20551;-71
2024/01/14 10:27:55;;;;;;;67.78;29.83;;;-0.80;99.90;;;;;;5019661;28;20317;-72
2024/01/14 10:30:41;;;;;;;60.60;28.83;;;-0.90;99.90;;;;;;5011419;28;20243;-72
2024/01/14 10:33:26;;;;;;;69.03;31.90;;;-1.00;99.90;;;;;;5007566;28;20208;-72
2024/01/14 10:36:13;;;;;;;68.47;33.40;;;-1.00;99.90;;;;;;5024633;28;20688;-71
2024/01/14 10:39:01;;;;;;;67.38;32.95;;;-1.10;99.90;;;;;;5021604;28;20295;-72
2024/01/14 10:41:47;;;;;;;67.43;32.78;;;-1.00;99.90;;;;;;5014074;28;20238;-72
2024/01/14 10:44:34;;;;;;;84.70;36.22;;;-0.80;99.90;;;;;;5007308;28;20348;-72
2024/01/14 10:47:21;;;;;;;70.00;34.15;;;-0.60;99.90;;;;;;5010532;28;20673;-72
2024/01/14 10:50:08;;;;;;;70.63;38.22;;;-0.50;99.90;;;;;;5015771;28;20261;-72
2024/01/14 10:52:56;;;;;;;78.15;38.05;;;-0.50;99.90;;;;;;5021210;28;20747;-72
2024/01/14 10:55:46;;;;;;;72.80;36.38;;;-0.40;99.90;;;;;;5007293;28;20754;-72
2024/01/14 10:58:35;;;;;;;67.32;34.60;;;-0.40;99.90;;;;;;5007035;28;20201;-72
2024/01/14 11:01:24;;;;;;;69.70;34.08;;;-0.40;99.90;;;;;;5008621;28;20230;-72
2024/01/14 11:04:10;;;;;;;69.63;34.45;;;-0.40;99.90;;;;;;5009200;28;20575;-73
2024/01/14 11:06:56;;;;;;;66.82;33.33;;;-0.50;99.90;;;;;;5001728;28;20330;-72
2024/01/14 11:09:43;;;;;;;59.80;29.98;;;-0.50;99.90;;;;;;5014880;28;20209;-72
2024/01/14 11:12:32;;;;;;;57.75;29.35;;;-0.50;99.90;;;;;;5018474;28;20221;-72
2024/01/14 11:15:24;;;;;;;53.10;27.17;;;-0.40;99.90;;;;;;5003343;28;20202;-73
2024/01/14 11:18:17;;;;;;;57.33;27.58;;;-0.40;99.90;;;;;;5013059;28;20210;-72
2024/01/14 11:21:18;;;;;;;69.88;29.48;;;-0.50;99.90;;;;;;5015034;28;20241;-72
2024/01/14 11:24:04;;;;;;;61.25;29.50;;;-0.50;99.90;;;;;;5012864;28;20269;-71
2024/01/14 11:26:50;;;;;;;68.65;34.13;;;-0.70;99.90;;;;;;5011053;28;20210;-71
2024/01/14 11:29:36;;;;;;;69.00;31.33;;;-0.70;99.90;;;;;;5012495;28;20692;-72
2024/01/14 11:32:23;;;;;;;69.28;33.35;;;-0.70;99.90;;;;;;5015294;28;20605;-73
2024/01/14 11:35:11;;;;;;;71.78;33.75;;;-0.60;99.90;;;;;;5017201;28;20206;-71
2024/01/14 11:37:56;;;;;;;63.85;31.35;;;-0.70;99.90;;;;;;5006505;28;20203;-72
2024/01/14 11:40:42;;;;;;;70.88;30.20;;;-0.80;99.90;;;;;;5016636;28;20582;-71
2024/01/14 11:43:29;;;;;;;65.43;32.50;;;-0.70;99.90;;;;;;5007018;28;20632;-73
2024/01/14 11:46:37;;;;;;;66.22;31.65;;;-0.80;99.90;;;;;;5013867;28;20213;-72
2024/01/14 11:49:24;;;;;;;77.70;34.35;;;-0.80;99.90;;;;;;5008163;28;20331;-71
2024/01/14 11:52:12;;;;;;;73.18;36.30;;;-0.70;99.90;;;;;;5023204;28;20226;-72
2024/01/14 11:54:57;;;;;;;64.75;32.47;;;-0.70;99.90;;;;;;5012124;28;20306;-74
2024/01/14 11:57:44;;;;;;;70.28;33.95;;;-0.90;99.90;;;;;;5006822;28;20198;-71
2024/01/14 12:00:31;;;;;;;72.45;33.70;;;-0.90;99.90;;;;;;5011432;28;20237;-73
2024/01/14 12:03:18;;;;;;;68.70;32.30;;;-0.80;99.90;;;;;;5013479;28;20252;-73
2024/01/14 12:06:05;;;;;;;78.38;33.28;;;-0.80;99.90;;;;;;5015112;28;20309;-72
2024/01/14 12:09:00;;;;;;;67.75;30.90;;;-0.80;99.90;;;;;;5009038;28;20346;-72
2024/01/14 12:11:46;;;;;;;69.50;32.88;;;-0.70;99.90;;;;;;5005747;28;20222;-72
2024/01/14 12:14:36;;;;;;;64.10;30.75;;;-0.70;99.90;;;;;;5011752;28;20754;-71
2024/01/14 12:17:22;;;;;;;66.93;31.13;;;-0.60;99.90;;;;;;5014728;28;20415;-72
2024/01/14 12:20:08;;;;;;;65.22;33.42;;;-0.60;99.90;;;;;;5015045;28;20221;-73
2024/01/14 12:22:59;;;;;;;65.63;31.42;;;-0.80;99.90;;;;;;5004560;28;20564;-71
2024/01/14 12:25:46;;;;;;;64.15;30.10;;;-0.80;99.90;;;;;;5006355;28;20207;-71
2024/01/14 12:28:31;;;;;;;77.40;34.40;;;-0.80;99.90;;;;;;5025971;28;20205;-73
2024/01/14 12:31:20;;;;;;;83.07;33.88;;;-0.90;99.90;;;;;;5021787;28;20311;-73
2024/01/14 12:34:08;;;;;;;62.75;30.10;;;-0.80;99.90;;;;;;5020617;28;20756;-74
2024/01/14 12:36:53;;;;;;;70.72;31.90;;;-0.70;99.90;;;;;;5012599;28;20207;-73
2024/01/14 12:39:39;;;;;;;70.20;31.70;;;-0.90;99.90;;;;;;5019553;28;20213;-78
2024/01/14 12:42:26;;;;;;;66.70;33.38;;;-0.80;99.90;;;;;;5006562;28;20207;-71
2024/01/14 12:45:14;;;;;;;67.00;30.38;;;-0.70;99.90;;;;;;5018311;28;20221;-72
2024/01/14 12:48:01;;;;;;;59.30;27.20;;;-0.70;99.90;;;;;;5021966;28;20209;-72
2024/01/14 12:50:47;;;;;;;63.08;30.52;;;-0.60;99.90;;;;;;5005059;28;20248;-72
2024/01/14 12:53:33;;;;;;;75.03;35.38;;;-0.40;99.90;;;;;;5009030;28;20209;-72
2024/01/14 12:56:20;;;;;;;61.75;33.97;;;-0.50;99.90;;;;;;5002504;28;20304;-71
2024/01/14 12:59:07;;;;;;;66.55;33.03;;;-0.40;99.90;;;;;;5021953;28;20262;-71
2024/01/14 13:01:52;;;;;;;67.88;28.67;;;-0.40;99.90;;;;;;5003980;28;20274;-72
2024/01/14 13:04:37;;;;;;;66.47;30.90;;;-0.40;99.90;;;;;;5008285;28;20229;-71
2024/01/14 13:07:23;;;;;;;64.03;31.27;;;-0.50;99.90;;;;;;5008018;28;20216;-71
2024/01/14 13:10:09;;;;;;;75.47;33.90;;;-0.50;99.90;;;;;;5011729;28;20253;-71
2024/01/14 13:12:55;;;;;;;62.58;31.30;;;-0.50;99.90;;;;;;5008958;28;20202;-71
2024/01/14 13:15:42;;;;;;;70.68;32.92;;;-0.40;99.90;;;;;;5018506;28;20328;-72
2024/01/14 13:18:28;;;;;;;67.30;33.22;;;-0.50;99.90;;;;;;5010589;28;20199;-71
2024/01/14 13:21:13;;;;;;;62.95;31.52;;;-0.50;99.90;;;;;;5013063;28;20240;-71
2024/01/14 13:23:59;;;;;;;72.05;31.83;;;-0.60;99.90;;;;;;5010476;28;20222;-72
2024/01/14 13:26:45;;;;;;;69.45;31.38;;;-0.60;99.90;;;;;;5013952;28;20205;-72
2024/01/14 13:29:30;;;;;;;66.63;31.27;;;-0.40;99.90;;;;;;5014137;28;20272;-71
2024/01/14 13:32:18;;;;;;;59.67;30.30;;;-0.60;99.90;;;;;;5004807;28;20599;-71
2024/01/14 13:35:05;;;;;;;63.72;31.55;;;-0.60;99.90;;;;;;5014213;28;20210;-72
2024/01/14 13:37:51;;;;;;;68.82;31.75;;;-0.60;99.90;;;;;;5018059;28;20201;-73
2024/01/14 13:40:37;;;;;;;59.83;30.60;;;-0.50;99.90;;;;;;5015325;28;20839;-72
2024/01/14 13:43:22;;;;;;;62.10;30.95;;;-0.50;99.90;;;;;;5016742;28;20197;-72
2024/01/14 13:46:08;;;;;;;62.80;32.72;;;-0.40;99.90;;;;;;5022462;28;20337;-71
2024/01/14 13:48:55;;;;;;;63.33;33.05;;;-0.40;99.90;;;;;;5012768;28;20209;-73
2024/01/14 13:51:41;;;;;;;77.03;35.20;;;-0.40;99.90;;;;;;5020378;28;20502;-72
2024/01/14 13:54:27;;;;;;;68.90;35.00;;;-0.60;99.90;;;;;;5015236;28;20230;-71
2024/01/14 13:57:12;;;;;;;67.20;33.90;;;-0.60;99.90;;;;;;5010359;28;20201;-72
2024/01/14 13:59:58;;;;;;;67.78;31.38;;;-0.60;99.90;;;;;;5022486;28;20349;-72
2024/01/14 14:02:44;;;;;;;67.35;32.30;;;-0.60;99.90;;;;;;5012512;28;20338;-74
2024/01/14 14:05:30;;;;;;;62.03;31.25;;;-0.40;99.90;;;;;;5006893;28;20217;-75